Aviation Digital Data Service (ADDS)

Output produced by TAFs form (1635 UTC 23 November 2017)
found at http://www.aviationweather.gov/adds/tafs/
 
METAR text: ZBAA 231630Z 29004MPS 270V330 CAVOK 00/M15 Q1027 NOSIG
Conditions at: ZBAA (BEIJING/PEKING , CN) observed 1630 UTC 23 November 2017
Temperature: 0.0°C (32°F)
Dewpoint: -15.0°C (5°F) [RH = 31%]
Pressure (altimeter): 30.32 inches Hg (1027.0 mb)
Winds: from the WNW (290 degrees) at 9 MPH (8 knots; 4.2 m/s)
Visibility: 6 or more miles (10+ km)
Ceiling: ceiling and visibility are OK
Clouds: unknown
Weather: no significant weather observed at this time

Forecast for: ZBAA (BEIJING/PEKING , CN)
Text: TAF ZBAA 231530Z 2318/2418 21004MPS 7000 NSC TX05/2407Z TNM04/22Z
Forecast period: 1800 UTC 23 November 2017 to 1800 UTC 24 November 2017
Forecast type: FROM: standard forecast or significant change
Winds: from the SSW (210 degrees) at 9 MPH (8 knots; 4.2 m/s)
Visibility: 4 miles (7 km)
Clouds: not forecast
Temperature: minimum -4.0°C (25°F) expected at 2200 UTC
Weather: no significant weather forecast for this period